Time;durP1;ratioP1;P1;durP2;ratioP2;P2;SDS_P1;SDS_P2;PMS_P1;PMS_P2;Temp;Humidity;BMP_temperature;BMP_pressure;BME280_temperature;BME280_humidity;BME280_pressure;Samples;Min_cycle;Max_cycle;Signal;HPM_P1;HPM_P2
2023/06/24 00:01:26;;;;;;;9.80;6.10;;;;;;;18.75;88.11;97338.95;103118;1287;96514;-75
2023/06/24 01:10:11;;;;;;;8.30;6.00;;;;;;;18.16;88.99;97313.33;105576;1266;98557;-78
2023/06/24 01:13:06;;;;;;;8.80;6.30;;;;;;;18.15;88.88;97310.36;106402;1256;95958;-77
2023/06/24 01:16:13;;;;;;;7.80;5.90;;;;;;;18.12;88.84;97305.92;107374;1245;95934;-78
2023/06/24 01:19:23;;;;;;;8.90;5.90;;;;;;;18.11;88.83;97306.74;106972;1251;99541;-78
2023/06/24 01:22:40;;;;;;;7.70;6.20;;;;;;;18.09;88.67;97305.14;105455;1264;100033;-78
2023/06/24 01:52:55;;;;;;;8.40;6.30;;;;;;;18.36;88.38;97329.42;101673;1270;5387243;-77
2023/06/24 01:56:08;;;;;;;10.10;6.40;;;;;;;18.26;88.56;97326.56;106084;1260;96034;-77
2023/06/24 02:06:53;;;;;;;9.60;6.60;;;;;;;18.11;89.32;97332.48;105656;1263;100209;-78
2023/06/24 02:10:00;;;;;;;9.10;6.60;;;;;;;18.08;89.22;97333.44;105522;1263;96037;-77
2023/06/24 02:13:08;;;;;;;7.70;6.80;;;;;;;18.06;89.31;97332.92;104962;1266;97245;-79
2023/06/24 02:50:53;;;;;;;10.00;7.70;;;;;;;18.29;89.19;97325.98;102566;1285;640066;-75
2023/06/24 02:54:02;;;;;;;14.00;7.70;;;;;;;18.42;88.90;97334.11;99688;1280;5343479;-78
2023/06/24 02:57:14;;;;;;;10.50;7.20;;;;;;;18.33;89.22;97337.28;102918;1296;96459;-75
2023/06/24 03:00:21;;;;;;;9.70;7.70;;;;;;;18.25;89.32;97335.68;102263;1292;99706;-75
2023/06/24 04:50:53;;;;;;;7.50;6.40;;;;;;;17.92;88.98;97366.33;105377;1264;95783;-81
2023/06/24 04:54:00;;;;;;;7.60;6.20;;;;;;;17.87;88.91;97369.23;105510;1263;96028;-80
2023/06/24 04:57:07;;;;;;;9.90;6.10;;;;;;;17.79;88.68;97371.77;104516;1285;100043;-85
2023/06/24 05:00:08;;;;;;;9.60;6.50;;;;;;;17.70;88.69;97370.92;104748;1272;101227;-84
2023/06/24 05:12:39;;;;;;;8.80;7.20;;;;;;;17.52;89.43;97365.36;102232;1294;636155;-83
2023/06/24 05:15:07;;;;;;;7.50;6.80;;;;;;;17.51;89.46;97366.98;104455;1270;95880;-84
2023/06/24 05:17:34;;;;;;;7.90;7.10;;;;;;;17.52;89.51;97366.00;105207;1257;96150;-83
2023/06/24 05:20:03;;;;;;;8.30;7.50;;;;;;;17.50;89.03;97367.14;105216;1259;107880;-83
2023/06/24 05:22:31;;;;;;;9.50;8.20;;;;;;;17.49;89.00;97366.33;105116;1256;102129;-83
2023/06/24 05:24:59;;;;;;;10.60;8.80;;;;;;;17.50;88.92;97368.40;105260;1260;100555;-83
2023/06/24 05:27:27;;;;;;;9.20;7.80;;;;;;;17.52;89.07;97376.21;105359;1254;125622;-83
2023/06/24 05:29:54;;;;;;;11.60;8.40;;;;;;;17.51;89.15;97377.95;105340;1254;96467;-83
2023/06/24 05:32:22;;;;;;;8.40;7.60;;;;;;;17.50;89.18;97380.95;105362;1256;99434;-83
2023/06/24 05:34:50;;;;;;;7.40;6.70;;;;;;;17.49;89.04;97382.04;105462;1253;102230;-83
2023/06/24 05:37:17;;;;;;;7.50;6.80;;;;;;;17.46;88.97;97384.72;105486;1256;100663;-83
2023/06/24 05:39:45;;;;;;;9.80;7.00;;;;;;;17.45;89.00;97384.92;105428;1256;96477;-83
2023/06/24 05:42:13;;;;;;;7.20;6.50;;;;;;;17.43;88.93;97387.73;105403;1275;96971;-84
2023/06/24 05:44:40;;;;;;;7.80;7.00;;;;;;;17.43;88.97;97387.19;105342;1266;101626;-84
2023/06/24 05:47:08;;;;;;;8.90;7.50;;;;;;;17.41;88.90;97388.59;105370;1257;108912;-83
2023/06/24 05:49:36;;;;;;;8.80;7.20;;;;;;;17.40;88.94;97388.41;105466;1256;100689;-83
2023/06/24 05:52:04;;;;;;;7.60;6.90;;;;;;;17.40;88.97;97393.58;105335;1256;95841;-83
2023/06/24 05:54:31;;;;;;;8.10;7.10;;;;;;;17.41;89.01;97397.20;105084;1265;95928;-83
2023/06/24 05:56:59;;;;;;;9.10;7.80;;;;;;;17.43;89.27;97404.16;105379;1260;101641;-83
2023/06/24 05:59:27;;;;;;;7.70;7.10;;;;;;;17.45;89.18;97407.03;105269;1256;100348;-83
2023/06/24 06:01:54;;;;;;;9.10;7.30;;;;;;;17.47;89.32;97409.45;105415;1256;100937;-83
2023/06/24 06:04:22;;;;;;;10.80;7.70;;;;;;;17.48;89.04;97411.88;105553;1256;96683;-83
2023/06/24 06:06:50;;;;;;;8.20;7.20;;;;;;;17.48;88.91;97413.89;105412;1255;95944;-83
2023/06/24 06:09:18;;;;;;;7.70;7.00;;;;;;;17.48;89.06;97412.02;105479;1252;101800;-83
2023/06/24 06:11:45;;;;;;;7.70;6.90;;;;;;;17.48;89.03;97409.96;105330;1253;102139;-83
2023/06/24 06:14:13;;;;;;;7.50;6.80;;;;;;;17.48;89.10;97411.44;105376;1255;100756;-83
2023/06/24 06:16:41;;;;;;;8.30;7.40;;;;;;;17.49;88.83;97416.04;105129;1253;95911;-83
2023/06/24 06:19:08;;;;;;;7.90;7.00;;;;;;;17.51;88.94;97420.04;105279;1257;96026;-83
2023/06/24 06:21:38;;;;;;;9.60;7.00;;;;;;;17.53;88.88;97426.48;105147;1255;101575;-83
2023/06/24 06:24:06;;;;;;;7.80;7.00;;;;;;;17.54;88.94;97427.38;105223;1267;100360;-83
2023/06/24 06:26:33;;;;;;;7.80;7.00;;;;;;;17.54;88.71;97432.57;105120;1267;99071;-83
2023/06/24 06:29:01;;;;;;;10.50;7.80;;;;;;;17.56;88.69;97431.11;105234;1256;95888;-83
2023/06/24 06:31:29;;;;;;;9.70;7.80;;;;;;;17.56;88.74;97431.23;105234;1255;96657;-82
2023/06/24 06:33:56;;;;;;;13.40;8.10;;;;;;;17.57;88.73;97429.10;105214;1257;101856;-83
2023/06/24 06:36:24;;;;;;;8.20;7.00;;;;;;;17.57;88.64;97429.93;105237;1258;109979;-83
2023/06/24 06:38:52;;;;;;;8.80;7.10;;;;;;;17.58;88.61;97433.02;105157;1256;100716;-83
2023/06/24 06:41:24;;;;;;;8.50;7.10;;;;;;;17.60;88.69;97441.86;105501;1266;95903;-83
2023/06/24 06:43:55;;;;;;;9.20;7.10;;;;;;;17.60;88.64;97443.95;105656;1254;95908;-83
2023/06/24 06:46:23;;;;;;;7.50;6.80;;;;;;;17.59;88.56;97444.37;105234;1256;101590;-83
2023/06/24 06:48:50;;;;;;;11.40;7.10;;;;;;;17.57;88.51;97446.69;105072;1258;102213;-82
2023/06/24 06:51:20;;;;;;;8.50;7.10;;;;;;;17.56;88.46;97449.71;105112;1256;100709;-83
2023/06/24 06:53:47;;;;;;;10.00;7.20;;;;;;;17.55;88.38;97449.55;105233;1256;96162;-83
2023/06/24 06:56:28;;;;;;;7.60;6.90;;;;;;;17.56;88.42;97455.73;105750;1251;95871;-83
2023/06/24 06:58:55;;;;;;;8.10;7.00;;;;;;;17.56;88.33;97459.29;105095;1264;101311;-83
2023/06/24 07:01:23;;;;;;;10.50;8.10;;;;;;;17.55;88.26;97467.02;105461;1256;102617;-83
2023/06/24 07:03:51;;;;;;;10.10;8.00;;;;;;;17.54;88.32;97467.98;105401;1257;100785;-83
2023/06/24 07:06:20;;;;;;;9.50;8.00;;;;;;;17.52;88.46;97470.30;105228;1266;95845;-84
2023/06/24 07:08:47;;;;;;;9.00;8.10;;;;;;;17.51;88.50;97471.44;105227;1257;96766;-83
2023/06/24 07:11:15;;;;;;;8.40;7.60;;;;;;;17.49;88.69;97473.35;105380;1263;101593;-84
2023/06/24 07:13:44;;;;;;;8.20;7.10;;;;;;;17.49;88.85;97475.64;105179;1256;102255;-83
2023/06/24 07:16:12;;;;;;;9.20;7.10;;;;;;;17.49;88.68;97479.40;105034;1258;107119;-82
2023/06/24 07:18:40;;;;;;;7.90;7.20;;;;;;;17.47;88.65;97477.02;105383;1274;96004;-82
2023/06/24 07:21:07;;;;;;;9.10;7.60;;;;;;;17.44;88.90;97477.14;105394;1251;95905;-81
2023/06/24 07:23:35;;;;;;;8.50;7.70;;;;;;;17.46;89.09;97477.38;105315;1257;99843;-82
2023/06/24 07:26:03;;;;;;;9.20;8.30;;;;;;;17.48;89.37;97475.89;105237;1263;102251;-81
2023/06/24 07:28:30;;;;;;;10.20;8.40;;;;;;;17.49;89.42;97479.13;105458;1256;107891;-82
2023/06/24 07:30:58;;;;;;;10.10;7.80;;;;;;;17.48;89.33;97480.20;105221;1260;96766;-82
2023/06/24 07:33:26;;;;;;;8.50;7.70;;;;;;;17.47;89.46;97482.59;105411;1262;95809;-82
2023/06/24 07:35:54;;;;;;;10.10;6.90;;;;;;;17.46;89.56;97483.34;105388;1256;101471;-82
2023/06/24 07:38:21;;;;;;;9.80;7.80;;;;;;;17.45;89.73;97485.39;105182;1274;101994;-82
2023/06/24 07:40:49;;;;;;;8.00;7.10;;;;;;;17.41;89.71;97489.09;105259;1264;100207;-82
2023/06/24 07:43:17;;;;;;;7.70;6.90;;;;;;;17.39;89.69;97491.14;105375;1273;95912;-82
2023/06/24 07:45:44;;;;;;;8.30;7.20;;;;;;;17.40;89.69;97496.13;105362;1261;95853;-82
2023/06/24 07:48:12;;;;;;;7.90;7.10;;;;;;;17.41;89.71;97496.14;105272;1264;111092;-83
2023/06/24 07:50:40;;;;;;;9.20;7.40;;;;;;;17.42;90.04;97503.46;105363;1267;102218;-82
2023/06/24 07:53:08;;;;;;;7.90;7.10;;;;;;;17.42;89.91;97501.56;105119;1257;100766;-83
2023/06/24 07:55:35;;;;;;;7.80;6.30;;;;;;;17.42;89.75;97506.31;105352;1257;97161;-83
2023/06/24 07:58:04;;;;;;;8.80;6.60;;;;;;;17.43;89.71;97512.27;105230;1258;96861;-83
2023/06/24 08:00:32;;;;;;;5.90;5.20;;;;;;;17.44;89.69;97511.34;105390;1255;101597;-81
2023/06/24 08:02:59;;;;;;;6.30;5.70;;;;;;;17.44;89.73;97511.46;105589;1253;102121;-83
2023/06/24 08:05:27;;;;;;;7.00;5.10;;;;;;;17.45;89.75;97509.19;105606;1257;110312;-83
2023/06/24 08:07:55;;;;;;;6.00;5.40;;;;;;;17.47;89.73;97509.88;105414;1257;95823;-83
2023/06/24 08:10:23;;;;;;;5.40;4.90;;;;;;;17.49;89.68;97513.83;105459;1251;95797;-83
2023/06/24 08:12:50;;;;;;;5.10;4.50;;;;;;;17.51;89.80;97517.45;105425;1254;101280;-85
2023/06/24 08:15:18;;;;;;;5.90;4.60;;;;;;;17.52;89.61;97518.63;105429;1257;102207;-85
2023/06/24 08:17:53;;;;;;;9.20;5.70;;;;;;;17.54;89.70;97520.22;105342;1263;101329;-85
2023/06/24 08:20:22;;;;;;;11.00;5.50;;;;;;;17.55;89.96;97524.77;105150;1274;96859;-86
2023/06/24 08:22:50;;;;;;;5.80;4.00;;;;;;;17.56;89.75;97524.13;105313;1255;95863;-85
2023/06/24 08:25:18;;;;;;;7.90;4.80;;;;;;;17.57;89.66;97524.25;105381;1251;101544;-86
2023/06/24 08:27:46;;;;;;;5.40;4.90;;;;;;;17.57;89.76;97529.55;105276;1257;102128;-86
2023/06/24 08:30:15;;;;;;;4.90;4.40;;;;;;;17.57;89.69;97532.60;105216;1256;101194;-86
2023/06/24 08:32:43;;;;;;;8.60;4.90;;;;;;;17.56;90.07;97529.65;105291;1258;95832;-86
2023/06/24 08:35:10;;;;;;;5.70;5.20;;;;;;;17.57;90.07;97528.66;105499;1256;95913;-85
2023/06/24 08:37:38;;;;;;;6.50;4.90;;;;;;;17.59;90.31;97529.47;105087;1261;101353;-86
2023/06/24 08:40:07;;;;;;;5.70;5.20;;;;;;;17.61;90.47;97531.84;105035;1260;102304;-85
2023/06/24 08:42:35;;;;;;;4.90;4.40;;;;;;;17.62;90.50;97532.41;105113;1276;100863;-85
2023/06/24 08:45:02;;;;;;;5.40;4.60;;;;;;;17.65;90.58;97532.78;105001;1270;95897;-85
2023/06/24 08:47:31;;;;;;;4.80;4.30;;;;;;;17.68;90.56;97532.71;105021;1259;96711;-86
2023/06/24 08:50:13;;;;;;;6.50;5.20;;;;;;;17.71;90.47;97535.06;105184;1261;101685;-85
2023/06/24 08:52:46;;;;;;;4.90;4.40;;;;;;;17.74;90.36;97536.64;105184;1260;102350;-85
2023/06/24 08:55:17;;;;;;;5.90;4.60;;;;;;;17.75;90.17;97538.91;105033;1270;100923;-85
2023/06/24 08:57:45;;;;;;;5.20;4.70;;;;;;;17.77;90.15;97540.52;105090;1259;95815;-85
2023/06/24 09:00:13;;;;;;;6.10;5.00;;;;;;;17.78;90.05;97543.64;105037;1259;97168;-85
2023/06/24 09:02:41;;;;;;;5.00;4.50;;;;;;;17.78;90.10;97541.14;104954;1258;101748;-85
2023/06/24 09:05:09;;;;;;;5.40;4.90;;;;;;;17.79;90.24;97539.02;104957;1270;102338;-85
2023/06/24 09:07:38;;;;;;;4.70;4.30;;;;;;;17.82;90.32;97538.41;105104;1260;100785;-85
2023/06/24 09:10:06;;;;;;;5.10;4.50;;;;;;;17.87;90.35;97535.36;105231;1258;96239;-86
2023/06/24 09:12:35;;;;;;;9.50;4.80;;;;;;;17.92;90.46;97537.39;105226;1256;95827;-85
2023/06/24 09:15:04;;;;;;;6.80;5.50;;;;;;;17.99;90.49;97542.23;105429;1263;101709;-85
2023/06/24 09:17:32;;;;;;;5.80;5.10;;;;;;;18.04;90.44;97545.94;105202;1267;102172;-85
2023/06/24 09:20:09;;;;;;;8.30;5.90;;;;;;;18.07;90.34;97548.88;105568;1257;108474;-85
2023/06/24 09:22:42;;;;;;;5.50;5.00;;;;;;;18.10;90.10;97550.17;105079;1254;96640;-85
2023/06/24 09:25:09;;;;;;;6.40;5.80;;;;;;;18.11;90.20;97550.13;105170;1251;97047;-86
2023/06/24 09:27:37;;;;;;;6.70;5.70;;;;;;;18.10;90.13;97551.45;105257;1256;102788;-86
2023/06/24 09:30:20;;;;;;;5.70;5.20;;;;;;;18.11;90.23;97557.72;105216;1251;102235;-85
2023/06/24 09:32:49;;;;;;;6.30;5.10;;;;;;;18.10;90.14;97552.41;105006;1261;100796;-85
2023/06/24 09:35:21;;;;;;;6.30;5.40;;;;;;;18.10;90.03;97552.70;105229;1267;96546;-85
2023/06/24 09:37:52;;;;;;;;;;;;;;;18.12;90.06;97556.41;105079;1259;97583;-85
2023/06/24 09:40:21;;;;;;;4.70;4.20;;;;;;;18.12;90.26;97558.59;105165;1257;102958;-86
2023/06/24 09:43:00;;;;;;;4.80;4.20;;;;;;;18.13;90.10;97561.83;105301;1259;102153;-85
2023/06/24 09:45:30;;;;;;;4.40;4.00;;;;;;;18.15;89.96;97561.70;105062;1257;100488;-85
2023/06/24 09:47:58;;;;;;;3.60;3.30;;;;;;;18.18;89.78;97561.78;105202;1265;97513;-85
2023/06/24 10:16:36;;;;;;;4.30;3.70;;;;;;;18.67;88.31;97572.50;105332;1277;97924;-74
2023/06/24 10:19:39;;;;;;;7.80;6.90;;;;;;;18.65;88.69;97573.95;105417;1273;100046;-74
2023/06/24 10:22:17;;;;;;;5.10;4.10;;;;;;;18.65;88.64;97575.31;104907;1267;99141;-74
2023/06/24 10:25:14;;;;;;;4.10;3.80;;;;;;;18.66;88.59;97577.57;105986;1255;95912;-75
2023/06/24 10:28:20;;;;;;;4.80;3.60;;;;;;;18.67;88.59;97580.76;105698;1260;95984;-75
2023/06/24 10:31:36;;;;;;;3.60;3.30;;;;;;;18.66;88.59;97579.77;105375;1262;98458;-75
2023/06/24 11:15:24;;;;;;;23.20;20.70;;;;;;;18.15;87.16;97623.86;106001;1260;95917;-81
2023/06/24 11:18:14;;;;;;;22.30;19.70;;;;;;;18.08;86.92;97625.48;106148;1254;95887;-83
2023/06/24 11:21:20;;;;;;;23.90;19.60;;;;;;;17.93;87.01;97624.20;106166;1254;97982;-85
2023/06/24 11:24:20;;;;;;;19.70;17.00;;;;;;;17.82;87.21;97626.11;105522;1265;100305;-83
2023/06/24 11:27:27;;;;;;;23.90;17.50;;;;;;;17.79;87.44;97627.21;105088;1264;99424;-81
2023/06/24 11:54:25;;;;;;;20.30;16.10;;;;;;;17.91;86.89;97617.88;102402;1288;642430;-76
2023/06/24 11:57:33;;;;;;;17.20;15.40;;;;;;;17.95;86.75;97615.36;100176;1276;5342573;-75
2023/06/24 12:00:46;;;;;;;22.90;14.80;;;;;;;17.83;86.81;97624.39;102847;1286;96858;-76
2023/06/24 12:35:52;;;;;;;17.60;15.80;;;;;;;18.25;86.04;97625.03;105510;1264;97989;-76
2023/06/24 12:38:59;;;;;;;17.70;15.70;;;;;;;18.23;85.91;97624.79;107057;1248;99927;-75
2023/06/24 12:42:09;;;;;;;18.60;16.60;;;;;;;18.20;86.26;97627.50;105977;1260;98919;-80
2023/06/24 12:45:16;;;;;;;20.90;16.80;;;;;;;18.21;86.32;97636.20;106694;1251;95936;-75
2023/06/24 12:48:10;;;;;;;19.30;15.60;;;;;;;18.23;86.29;97634.52;105302;1261;96118;-86
2023/06/24 12:51:16;;;;;;;18.80;16.00;;;;;;;18.24;86.29;97637.85;105074;1273;98712;-83
2023/06/24 13:15:04;;;;;;;13.00;11.20;;;;;;;18.30;84.81;97645.75;102594;1287;643346;-83
2023/06/24 13:18:11;;;;;;;15.60;10.50;;;;;;;18.30;84.31;97654.77;100171;1275;5343094;-82
2023/06/24 13:21:17;;;;;;;11.70;10.50;;;;;;;18.20;84.20;97651.91;102880;1291;97355;-80
2023/06/24 13:24:26;;;;;;;14.50;10.00;;;;;;;18.11;84.07;97654.09;102025;1292;102094;-83
2023/06/24 13:47:29;;;;;;;13.40;11.70;;;;;;;18.11;83.63;97655.49;103096;1284;640590;-78
2023/06/24 13:50:30;;;;;;;18.90;13.70;;;;;;;18.11;83.21;97656.83;100260;1270;5341520;-78
2023/06/24 13:53:38;;;;;;;18.80;13.00;;;;;;;18.01;83.39;97660.79;103525;1281;98678;-77
2023/06/24 14:45:23;;;;;;;16.50;13.60;;;;;;;17.73;84.50;97667.02;105458;1265;95899;-75
2023/06/24 14:48:23;;;;;;;14.70;12.40;;;;;;;17.73;84.58;97665.85;106700;1255;99372;-75
2023/06/24 14:51:32;;;;;;;17.40;13.00;;;;;;;17.70;84.40;97664.98;105748;1263;97282;-75
2023/06/24 14:54:39;;;;;;;17.70;12.10;;;;;;;17.68;84.61;97666.52;105307;1266;96831;-75
2023/06/24 14:57:46;;;;;;;16.30;12.60;;;;;;;17.64;84.47;97669.20;104455;1273;99904;-75
2023/06/24 15:00:53;;;;;;;15.60;12.70;;;;;;;17.60;84.49;97669.50;103889;1284;100612;-76
2023/06/24 15:03:59;;;;;;;17.20;13.40;;;;;;;17.56;84.82;97670.27;103226;1290;100603;-75
2023/06/24 15:33:23;;;;;;;17.30;12.70;;;;;;;17.80;84.86;97655.18;103169;1283;641331;-73
2023/06/24 15:36:34;;;;;;;15.50;11.60;;;;;;;17.89;84.59;97656.70;101151;1260;5335230;-73
2023/06/24 15:39:44;;;;;;;12.70;11.30;;;;;;;17.82;84.45;97659.38;104734;1266;99721;-75
2023/06/24 15:42:53;;;;;;;13.40;11.00;;;;;;;17.75;84.57;97660.85;104735;1285;100084;-74
2023/06/24 15:46:01;;;;;;;14.40;11.60;;;;;;;17.69;84.44;97661.63;104211;1271;97946;-74
2023/06/24 15:49:10;;;;;;;15.40;11.90;;;;;;;17.61;84.61;97661.45;103805;1277;95934;-83
2023/06/24 15:52:25;;;;;;;14.10;11.70;;;;;;;17.53;84.55;97664.91;102818;1284;96087;-85
2023/06/24 16:27:24;;;;;;;12.30;10.10;;;;;;;17.31;84.34;97673.52;106037;1260;97807;-74
2023/06/24 16:30:31;;;;;;;13.90;10.20;;;;;;;17.26;84.50;97671.46;107288;1244;100257;-75
2023/06/24 16:33:38;;;;;;;13.60;10.30;;;;;;;17.10;84.31;97669.95;106800;1252;97838;-76
2023/06/24 16:36:45;;;;;;;13.90;10.50;;;;;;;16.92;84.65;97672.67;106800;1249;95927;-75
2023/06/24 16:39:52;;;;;;;14.30;11.90;;;;;;;16.84;84.99;97678.58;106304;1257;96718;-74
2023/06/24 16:42:59;;;;;;;12.60;10.70;;;;;;;16.83;85.34;97678.39;105744;1258;98177;-76
2023/06/24 17:17:54;;;;;;;14.20;11.20;;;;;;;16.82;85.04;97680.55;105655;1264;98183;-78
2023/06/24 17:21:01;;;;;;;13.70;10.90;;;;;;;16.68;85.55;97675.50;107690;1244;100407;-78
2023/06/24 17:24:08;;;;;;;11.50;10.30;;;;;;;16.65;85.74;97678.68;106603;1251;98581;-78
2023/06/24 17:27:14;;;;;;;14.70;11.70;;;;;;;16.60;85.61;97677.52;105736;1257;96015;-77
2023/06/24 17:30:22;;;;;;;15.60;12.30;;;;;;;16.51;85.91;97678.36;105148;1265;96026;-77
2023/06/24 17:33:18;;;;;;;14.60;12.00;;;;;;;16.49;86.27;97679.84;105301;1265;99709;-79
2023/06/24 19:29:56;;;;;;;12.20;10.80;;;;;;;15.98;87.25;97701.14;105626;1266;95789;-75
2023/06/24 19:33:03;;;;;;;14.00;10.60;;;;;;;15.97;87.39;97700.73;106093;1254;96158;-74
2023/06/24 19:35:55;;;;;;;11.70;9.70;;;;;;;15.96;87.25;97700.16;105191;1273;99296;-76
2023/06/24 19:39:01;;;;;;;11.60;10.50;;;;;;;15.95;87.36;97700.91;105995;1259;100455;-77
2023/06/24 19:42:01;;;;;;;12.30;9.60;;;;;;;15.92;87.40;97699.51;104927;1278;97835;-75
2023/06/24 19:45:08;;;;;;;12.10;10.80;;;;;;;15.90;87.49;97696.56;104969;1269;96074;-75
2023/06/24 20:21:03;;;;;;;10.40;8.50;;;;;;;15.92;87.48;97670.27;105714;1264;97953;-78
2023/06/24 20:23:30;;;;;;;14.20;9.00;;;;;;;15.88;87.63;97670.55;107813;1238;96781;-78
2023/06/24 20:25:56;;;;;;;12.60;10.00;;;;;;;15.84;87.68;97669.69;107652;1250;96101;-77
2023/06/24 20:28:23;;;;;;;13.80;9.30;;;;;;;15.82;87.81;97676.19;107836;1251;95935;-78
2023/06/24 20:30:49;;;;;;;12.00;9.40;;;;;;;15.81;87.88;97677.27;107821;1248;100948;-79
2023/06/24 20:33:15;;;;;;;14.60;9.90;;;;;;;15.79;87.96;97676.64;107824;1243;95857;-77
2023/06/24 20:35:41;;;;;;;13.90;10.80;;;;;;;15.76;87.86;97672.95;107812;1235;96151;-77
2023/06/24 20:38:08;;;;;;;14.70;11.30;;;;;;;15.76;88.03;97675.02;107745;1241;95995;-77
2023/06/24 20:40:34;;;;;;;14.20;12.40;;;;;;;15.73;88.05;97678.15;107946;1246;101023;-77
2023/06/24 20:43:00;;;;;;;14.80;11.90;;;;;;;15.70;88.28;97674.21;108010;1237;95990;-77
2023/06/24 20:45:27;;;;;;;16.30;13.30;;;;;;;15.68;88.42;97673.36;107949;1238;97070;-77
2023/06/24 20:47:55;;;;;;;18.50;13.70;;;;;;;15.69;88.47;97676.33;108148;1238;95914;-69
2023/06/24 20:50:21;;;;;;;16.40;12.70;;;;;;;15.68;88.37;97677.52;108218;1237;96137;-68
2023/06/24 20:52:48;;;;;;;15.10;11.50;;;;;;;15.66;88.53;97679.14;108217;1247;96683;-68
2023/06/24 20:55:14;;;;;;;16.70;12.50;;;;;;;15.65;88.70;97681.58;108447;1237;99921;-68
2023/06/24 20:57:40;;;;;;;17.80;12.00;;;;;;;15.66;88.78;97679.59;109145;1236;95831;-69
2023/06/24 21:00:09;;;;;;;16.40;12.50;;;;;;;15.66;88.71;97682.56;109696;1235;96754;-68
2023/06/24 21:02:35;;;;;;;15.30;12.70;;;;;;;15.68;88.76;97686.92;108243;1241;95830;-69
2023/06/24 21:05:02;;;;;;;17.30;13.90;;;;;;;15.68;88.76;97684.68;108259;1244;95996;-69
2023/06/24 21:07:28;;;;;;;16.90;13.60;;;;;;;15.70;88.77;97684.19;108309;1237;95834;-69
2023/06/24 21:09:54;;;;;;;17.80;14.80;;;;;;;15.70;88.67;97685.54;108221;1238;95819;-69
2023/06/24 21:12:20;;;;;;;21.80;14.90;;;;;;;15.69;88.87;97682.69;108272;1238;95854;-69
2023/06/24 21:14:47;;;;;;;22.60;17.00;;;;;;;15.68;88.89;97682.08;108112;1234;95939;-69
2023/06/24 21:17:14;;;;;;;24.30;19.90;;;;;;;15.70;88.87;97685.75;108196;1241;95817;-69
2023/06/24 21:19:40;;;;;;;23.50;17.50;;;;;;;15.70;88.84;97678.89;108245;1237;96778;-70
2023/06/24 21:22:07;;;;;;;18.40;14.40;;;;;;;15.71;88.99;97677.40;108129;1237;96218;-70
2023/06/24 21:24:33;;;;;;;14.70;11.90;;;;;;;15.72;88.96;97673.56;108291;1237;96663;-69
2023/06/24 21:26:59;;;;;;;14.90;11.20;;;;;;;15.70;88.58;97675.14;108225;1238;96826;-70
2023/06/24 21:29:25;;;;;;;12.70;10.40;;;;;;;15.70;88.51;97675.73;108086;1237;96380;-69
2023/06/24 21:31:52;;;;;;;11.30;10.00;;;;;;;15.67;88.42;97676.61;108164;1247;95933;-70
2023/06/24 21:34:18;;;;;;;10.20;8.60;;;;;;;15.59;88.35;97670.43;108168;1237;95855;-70
2023/06/24 21:36:44;;;;;;;12.10;9.20;;;;;;;15.56;88.47;97673.91;108194;1247;96243;-70
2023/06/24 21:39:11;;;;;;;11.70;8.70;;;;;;;15.54;88.53;97675.65;108103;1237;95936;-69
2023/06/24 21:41:37;;;;;;;12.80;8.90;;;;;;;15.53;88.34;97675.11;108164;1246;95997;-71
2023/06/24 21:44:03;;;;;;;11.70;9.50;;;;;;;15.50;88.38;97670.41;108181;1237;96692;-70
2023/06/24 21:46:30;;;;;;;11.50;9.50;;;;;;;15.49;88.39;97669.63;108316;1235;96114;-70
2023/06/24 21:48:57;;;;;;;13.80;10.00;;;;;;;15.47;88.27;97671.87;108299;1238;95882;-70
2023/06/24 21:51:23;;;;;;;10.90;9.70;;;;;;;15.45;88.31;97672.27;108069;1237;95877;-70
2023/06/24 21:53:50;;;;;;;14.30;10.10;;;;;;;15.44;88.55;97674.30;108131;1238;96038;-70
2023/06/24 21:56:16;;;;;;;12.60;9.70;;;;;;;15.42;88.49;97675.29;108268;1234;95855;-70
2023/06/24 21:58:42;;;;;;;12.60;10.30;;;;;;;15.42;88.55;97675.84;108172;1237;95892;-70
2023/06/24 22:01:09;;;;;;;14.50;10.40;;;;;;;15.41;88.38;97675.98;108185;1240;100860;-83
2023/06/24 22:03:35;;;;;;;12.80;9.90;;;;;;;15.41;88.18;97671.72;107748;1236;97756;-84
2023/06/24 22:06:02;;;;;;;14.80;9.30;;;;;;;15.39;88.12;97673.63;108168;1237;95999;-84
2023/06/24 22:08:28;;;;;;;10.90;9.80;;;;;;;15.33;88.23;97674.31;107912;1233;97085;-83
2023/06/24 22:10:55;;;;;;;12.40;10.30;;;;;;;15.30;88.24;97676.47;107947;1237;100657;-84
2023/06/24 22:13:21;;;;;;;12.00;10.20;;;;;;;15.28;88.16;97676.45;107953;1247;95799;-84
2023/06/24 22:15:47;;;;;;;12.70;9.70;;;;;;;15.25;88.36;97667.25;108151;1237;96175;-81
2023/06/24 22:18:14;;;;;;;12.10;9.10;;;;;;;15.25;88.41;97665.71;108057;1237;95850;-79
2023/06/24 22:20:40;;;;;;;12.10;9.50;;;;;;;15.24;88.46;97663.84;107959;1237;101056;-78
2023/06/24 22:23:06;;;;;;;13.40;10.30;;;;;;;15.24;88.48;97666.84;108059;1238;95811;-81
2023/06/24 22:25:33;;;;;;;12.20;9.20;;;;;;;15.22;88.22;97666.17;108098;1237;95837;-79
2023/06/24 22:28:00;;;;;;;12.20;10.10;;;;;;;15.21;88.32;97672.65;108015;1235;95924;-79
2023/06/24 22:30:26;;;;;;;13.00;9.70;;;;;;;15.19;88.51;97672.39;107984;1237;101000;-79
2023/06/24 22:32:53;;;;;;;13.20;9.40;;;;;;;15.17;88.47;97670.44;107969;1238;95829;-82
2023/06/24 22:35:19;;;;;;;13.20;10.30;;;;;;;15.13;88.34;97662.50;107991;1238;96768;-81
2023/06/24 22:37:46;;;;;;;11.10;9.90;;;;;;;15.12;88.48;97664.69;108197;1233;95924;-81
2023/06/24 22:40:13;;;;;;;14.70;9.70;;;;;;;15.11;88.70;97664.66;108029;1246;99861;-82
2023/06/24 22:42:39;;;;;;;14.60;9.70;;;;;;;15.11;88.68;97664.98;107982;1238;96680;-82
2023/06/24 22:45:06;;;;;;;10.90;9.30;;;;;;;15.11;88.67;97662.38;108102;1234;95882;-82
2023/06/24 22:47:32;;;;;;;12.20;9.90;;;;;;;15.07;88.52;97661.66;108147;1235;95815;-82
2023/06/24 22:49:59;;;;;;;13.40;10.90;;;;;;;15.06;88.55;97661.79;107486;1242;99859;-82
2023/06/24 22:52:25;;;;;;;15.80;12.00;;;;;;;15.07;88.66;97666.21;107520;1242;95973;-83
2023/06/24 22:54:51;;;;;;;14.10;10.70;;;;;;;15.06;88.61;97662.05;107467;1242;96851;-83
2023/06/24 22:57:18;;;;;;;10.90;9.10;;;;;;;15.08;88.45;97663.78;107540;1253;95953;-82
2023/06/24 22:59:44;;;;;;;11.70;9.30;;;;;;;15.08;88.42;97658.09;107435;1241;108266;-82
2023/06/24 23:02:11;;;;;;;11.50;9.50;;;;;;;15.09;88.37;97662.67;107410;1242;96975;-83
2023/06/24 23:04:37;;;;;;;13.80;9.90;;;;;;;15.06;88.49;97656.73;107325;1253;95929;-82
2023/06/24 23:07:04;;;;;;;14.70;10.30;;;;;;;15.06;88.32;97659.76;107519;1245;96100;-82
2023/06/24 23:09:30;;;;;;;12.60;8.80;;;;;;;15.04;88.32;97659.95;107523;1238;100948;-83
2023/06/24 23:11:58;;;;;;;13.40;9.40;;;;;;;15.02;88.41;97651.18;107386;1241;97659;-82
2023/06/24 23:14:24;;;;;;;10.70;9.50;;;;;;;14.98;88.33;97647.70;107390;1250;96167;-88
2023/06/24 23:16:51;;;;;;;11.40;9.00;;;;;;;14.94;88.45;97642.30;107372;1238;96012;-81
2023/06/24 23:19:18;;;;;;;11.70;9.70;;;;;;;14.90;88.47;97638.91;107440;1241;95880;-81
2023/06/24 23:21:44;;;;;;;12.60;9.50;;;;;;;14.88;88.37;97635.30;107965;1233;96067;-82
2023/06/24 23:24:13;;;;;;;12.40;9.40;;;;;;;14.87;88.42;97632.77;107471;1240;99197;-81
2023/06/24 23:26:42;;;;;;;10.70;9.50;;;;;;;14.85;88.54;97632.36;107924;1233;95982;-82
2023/06/24 23:29:11;;;;;;;12.00;9.30;;;;;;;14.83;88.33;97635.69;107997;1248;95799;-81
2023/06/24 23:31:39;;;;;;;12.30;9.10;;;;;;;14.81;88.28;97632.97;107759;1235;100878;-83
2023/06/24 23:34:07;;;;;;;13.60;9.50;;;;;;;14.79;88.49;97634.45;107250;1248;101500;-84
2023/06/24 23:36:34;;;;;;;15.00;9.80;;;;;;;14.77;88.51;97632.98;107614;1248;95994;-83
2023/06/24 23:39:01;;;;;;;10.70;9.10;;;;;;;14.75;88.63;97631.79;107563;1244;96141;-84
2023/06/24 23:41:29;;;;;;;14.30;9.70;;;;;;;14.74;88.61;97636.98;107858;1239;95984;-83
2023/06/24 23:43:56;;;;;;;16.40;10.30;;;;;;;14.73;88.69;97633.81;107475;1245;95841;-83
2023/06/24 23:46:22;;;;;;;12.70;9.50;;;;;;;14.74;88.72;97632.19;108023;1241;95875;-81